createdAt,value
2019-01-08T00:00:52.384Z,100113.34
2019-01-08T00:06:30.571Z,100096.98
2019-01-08T00:11:35.687Z,100074.56
2019-01-08T00:16:40.729Z,100047.51
2019-01-08T00:21:45.783Z,100047.02
2019-01-08T00:26:50.869Z,100031.23
2019-01-08T00:31:55.963Z,100018.30
2019-01-08T00:37:01.007Z,100015.71
2019-01-08T00:42:07.488Z,100002.77
2019-01-08T00:47:12.805Z,99992.47
2019-01-08T00:52:17.998Z,99986.21
2019-01-08T00:57:23.159Z,99962.75
2019-01-08T01:02:28.209Z,99944.84
2019-01-08T01:07:33.316Z,99936.70
2019-01-08T01:12:38.306Z,99937.98
2019-01-08T01:17:43.792Z,99913.25
2019-01-08T01:22:48.884Z,99892.94
2019-01-08T01:27:53.978Z,99887.63
2019-01-08T01:32:59.081Z,99869.51
2019-01-08T01:38:04.194Z,99868.19
2019-01-08T01:43:09.486Z,99844.02
2019-01-08T01:48:14.667Z,99829.03
2019-01-08T01:53:22.785Z,99826.41
2019-01-08T01:58:28.222Z,99806.67
2019-01-08T02:03:33.266Z,99798.00
2019-01-08T02:08:38.300Z,99784.04
2019-01-08T02:13:43.299Z,99766.95
2019-01-08T02:18:48.299Z,99748.02
2019-01-08T02:23:53.717Z,99730.63
2019-01-08T02:28:58.869Z,99737.99
2019-01-08T02:34:03.995Z,99725.66
2019-01-08T02:39:09.034Z,99718.83
2019-01-08T02:44:14.023Z,99707.77
2019-01-08T02:49:37.070Z,99697.80
2019-01-08T02:54:57.393Z,99678.30
2019-01-08T03:00:02.771Z,99679.41
2019-01-08T03:05:07.851Z,99666.75
2019-01-08T03:10:13.526Z,99654.91
2019-01-08T03:15:18.529Z,99634.42
2019-01-08T03:20:23.518Z,99639.42
2019-01-08T03:25:28.570Z,99637.58
2019-01-08T03:30:33.594Z,99629.17
2019-01-08T03:35:38.677Z,99624.69
2019-01-08T03:40:43.762Z,99623.10
2019-01-08T03:45:48.846Z,99614.42
2019-01-08T03:50:53.913Z,99603.88
2019-01-08T03:55:59.456Z,99597.56
2019-01-08T04:01:04.888Z,99563.30
2019-01-08T04:06:09.942Z,99565.39
2019-01-08T04:11:14.972Z,99562.20
2019-01-08T04:16:20.046Z,99540.36
2019-01-08T04:21:25.133Z,99535.09
2019-01-08T04:26:30.207Z,99521.15
2019-01-08T04:31:35.498Z,99523.23
2019-01-08T04:36:41.274Z,99513.46
2019-01-08T04:41:46.392Z,99501.36
2019-01-08T04:46:56.836Z,99489.73
2019-01-08T04:52:02.014Z,99490.53
2019-01-08T04:57:09.532Z,99492.09
2019-01-08T05:02:14.578Z,99479.73
2019-01-08T05:07:19.774Z,99453.67
2019-01-08T05:12:24.897Z,99449.75
2019-01-08T05:17:30.337Z,99448.44
2019-01-08T05:22:35.765Z,99442.63
2019-01-08T05:27:40.811Z,99423.69
2019-01-08T05:32:45.994Z,99417.62
2019-01-08T05:37:51.147Z,99404.19
2019-01-08T05:42:56.908Z,99406.03
2019-01-08T05:48:03.449Z,99384.68
2019-01-08T05:53:08.638Z,99374.93
2019-01-08T05:58:14.525Z,99368.57
2019-01-08T06:03:19.682Z,99351.43
2019-01-08T06:08:24.927Z,99355.41
2019-01-08T06:13:30.733Z,99359.37
2019-01-08T06:18:36.088Z,99347.25
2019-01-08T06:23:41.323Z,99349.04
2019-01-08T06:28:46.611Z,99345.91
2019-01-08T06:33:51.674Z,99319.81
2019-01-08T06:38:56.816Z,99305.59
2019-01-08T06:44:21.059Z,99293.48
2019-01-08T06:49:26.110Z,99279.59
2019-01-08T06:54:32.804Z,99289.66
2019-01-08T06:59:38.446Z,99258.06
2019-01-08T07:04:44.529Z,99260.16
2019-01-08T07:09:49.640Z,99251.48
2019-01-08T07:14:55.108Z,99238.31
2019-01-08T07:20:00.582Z,99233.28
2019-01-08T07:25:06.630Z,99226.38
2019-01-08T07:30:14.710Z,99220.03
2019-01-08T07:35:20.403Z,99227.59
2019-01-08T07:40:25.956Z,99212.03
2019-01-08T07:45:31.361Z,99207.54
2019-01-08T07:50:36.406Z,99206.20
2019-01-08T07:55:41.647Z,99199.41
2019-01-08T08:00:50.177Z,99189.12
2019-01-08T08:06:12.137Z,99186.73
2019-01-08T08:11:17.104Z,99173.55
2019-01-08T08:16:25.556Z,99165.34
2019-01-08T08:21:30.772Z,99157.88
2019-01-08T08:26:38.513Z,99163.37
2019-01-08T08:31:44.106Z,99152.05
2019-01-08T08:36:50.428Z,99160.56
2019-01-08T08:41:56.338Z,99141.85
2019-01-08T08:47:01.518Z,99135.89
2019-01-08T08:52:06.590Z,99145.15
2019-01-08T08:57:12.024Z,99138.06
2019-01-08T09:02:17.342Z,99127.10
2019-01-08T09:07:22.935Z,99106.80
2019-01-08T09:12:28.078Z,99107.55
2019-01-08T09:17:33.428Z,99092.76
2019-01-08T09:22:38.592Z,99081.52
2019-01-08T09:27:43.780Z,99087.20
2019-01-08T09:32:48.976Z,99077.77
2019-01-08T09:37:54.082Z,99074.72
2019-01-08T09:42:59.576Z,99062.09
2019-01-08T09:48:05.851Z,99046.52
2019-01-08T09:53:49.190Z,99049.97
2019-01-08T09:58:54.280Z,99029.48
2019-01-08T10:03:59.741Z,99002.36
2019-01-08T10:09:05.681Z,98999.22
2019-01-08T10:14:10.990Z,98981.23
2019-01-08T10:19:16.018Z,98968.70
2019-01-08T10:24:21.238Z,98968.21
2019-01-08T10:29:26.182Z,98954.34
2019-01-08T10:34:32.368Z,98936.27
2019-01-08T10:39:37.424Z,98915.10
2019-01-08T10:44:42.424Z,98907.16
2019-01-08T10:49:47.460Z,98885.98
2019-01-08T10:54:52.478Z,98869.05
2019-01-08T10:59:57.489Z,98845.37
2019-01-08T11:05:02.614Z,98839.11
2019-01-08T11:10:08.398Z,98828.79
2019-01-08T11:15:13.804Z,98821.62
2019-01-08T11:20:19.751Z,98818.33
2019-01-08T11:25:25.233Z,98821.08
2019-01-08T11:30:30.249Z,98833.37
2019-01-08T11:35:42.350Z,98811.00
2019-01-08T11:40:47.082Z,98798.98
2019-01-08T11:45:52.254Z,98801.48
2019-01-08T11:50:57.304Z,98798.33
2019-01-08T11:56:02.379Z,98796.72
2019-01-08T12:01:07.977Z,98781.05
2019-01-08T12:06:12.978Z,98783.22
2019-01-08T12:11:19.864Z,98759.45
2019-01-08T12:16:24.994Z,98761.77
2019-01-08T12:21:30.123Z,98753.00
2019-01-08T12:26:35.333Z,98751.86
2019-01-08T12:31:40.492Z,98762.92
2019-01-08T12:36:46.088Z,98754.71
2019-01-08T12:41:51.289Z,98764.92
2019-01-08T12:46:56.336Z,98748.14
2019-01-08T12:52:01.646Z,98760.38
2019-01-08T12:57:06.818Z,98761.74
2019-01-08T13:02:14.834Z,98758.25
2019-01-08T13:07:27.858Z,98732.56
2019-01-08T13:12:33.003Z,98735.71
2019-01-08T13:17:38.402Z,98741.16
2019-01-08T13:22:43.530Z,98736.56
2019-01-08T13:27:49.224Z,98748.91
2019-01-08T13:32:54.449Z,98735.03
2019-01-08T13:38:00.978Z,98729.76
2019-01-08T13:43:07.313Z,98722.75
2019-01-08T13:48:12.524Z,98730.35
2019-01-08T13:53:18.948Z,98716.09
2019-01-08T13:58:24.282Z,98719.11
2019-01-08T14:03:31.210Z,98722.52
2019-01-08T14:08:36.335Z,98724.55
2019-01-08T14:13:42.342Z,98735.18
2019-01-08T14:18:48.535Z,98747.48
2019-01-08T14:23:54.623Z,98763.04
2019-01-08T14:29:00.622Z,98751.22
2019-01-08T14:34:05.776Z,98739.95
2019-01-08T14:39:11.108Z,98736.80
2019-01-08T14:44:21.192Z,98749.67
2019-01-08T14:49:26.739Z,98747.04
2019-01-08T14:54:32.532Z,98736.24
2019-01-08T14:59:37.850Z,98739.95
2019-01-08T15:04:42.953Z,98747.27
2019-01-08T15:09:48.200Z,98745.61
2019-01-08T15:14:53.351Z,98733.11
2019-01-08T15:19:58.544Z,98747.87
2019-01-08T15:25:03.872Z,98753.33
2019-01-08T15:30:10.629Z,98750.90
2019-01-08T15:35:15.882Z,98759.84
2019-01-08T15:40:21.065Z,98757.02
2019-01-08T15:45:26.325Z,98747.98
2019-01-08T15:50:31.607Z,98743.41
2019-01-08T15:55:36.742Z,98736.52
2019-01-08T16:00:42.019Z,98752.08
2019-01-08T16:05:47.392Z,98750.17
2019-01-08T16:10:52.450Z,98746.55
2019-01-08T16:15:57.621Z,98738.47
2019-01-08T16:21:02.922Z,98740.59
2019-01-08T16:26:08.058Z,98734.80
2019-01-08T16:31:13.345Z,98738.13
2019-01-08T16:36:18.473Z,98736.89
2019-01-08T16:41:23.525Z,98746.13
2019-01-08T16:46:28.557Z,98743.13
2019-01-08T16:51:34.226Z,98730.25
2019-01-08T16:56:54.675Z,98721.10
2019-01-08T17:02:00.246Z,98720.95
2019-01-08T17:07:05.728Z,98732.12
2019-01-08T17:12:10.963Z,98710.82
2019-01-08T17:17:16.016Z,98720.19
2019-01-08T17:22:21.568Z,98725.34
2019-01-08T17:27:26.892Z,98724.14
2019-01-08T17:32:33.538Z,98726.05
2019-01-08T17:37:39.354Z,98714.48
2019-01-08T17:42:44.654Z,98719.50
2019-01-08T17:47:50.099Z,98713.17
2019-01-08T17:52:55.713Z,98725.80
2019-01-08T17:58:47.977Z,98733.77
2019-01-08T18:03:53.164Z,98733.06
2019-01-08T18:09:00.009Z,98731.01
2019-01-08T18:14:05.373Z,98742.57
2019-01-08T18:19:11.285Z,98731.53
2019-01-08T18:24:17.257Z,98745.45
2019-01-08T18:29:22.699Z,98739.10
2019-01-08T18:34:28.425Z,98735.41
2019-01-08T18:39:34.026Z,98742.76
2019-01-08T18:44:39.413Z,98743.56
2019-01-08T18:49:47.263Z,98752.27
2019-01-08T18:54:52.554Z,98752.81
2019-01-08T18:59:57.734Z,98768.69
2019-01-08T19:05:02.777Z,98759.08
2019-01-08T19:10:12.620Z,98753.88
2019-01-08T19:15:18.057Z,98753.88
2019-01-08T19:20:23.538Z,98741.58
2019-01-08T19:25:28.719Z,98744.79
2019-01-08T19:30:33.932Z,98754.55
2019-01-08T19:35:38.979Z,98769.42
2019-01-08T19:40:44.041Z,98751.66
2019-01-08T19:45:49.374Z,98767.79
2019-01-08T19:50:54.801Z,98783.41
2019-01-08T19:55:59.906Z,98783.16
2019-01-08T20:01:04.942Z,98784.83
2019-01-08T20:06:19.647Z,98781.80
2019-01-08T20:11:24.948Z,98782.13
2019-01-08T20:16:30.605Z,98773.77
2019-01-08T20:21:35.773Z,98791.15
2019-01-08T20:26:41.135Z,98774.08
2019-01-08T20:31:46.603Z,98775.10
2019-01-08T20:36:52.116Z,98777.12
2019-01-08T20:41:57.496Z,98781.82
2019-01-08T20:47:02.645Z,98783.13
2019-01-08T20:52:08.274Z,98778.94
2019-01-08T20:57:13.455Z,98779.69
2019-01-08T21:02:18.761Z,98776.48
2019-01-08T21:07:24.000Z,98783.63
2019-01-08T21:12:29.536Z,98788.12
2019-01-08T21:17:45.058Z,98796.80
2019-01-08T21:22:50.308Z,98804.66
2019-01-08T21:27:55.440Z,98790.31
2019-01-08T21:33:00.607Z,98805.80
2019-01-08T21:38:05.944Z,98813.99
2019-01-08T21:43:11.312Z,98805.91
2019-01-08T21:48:16.342Z,98816.75
2019-01-08T21:53:22.034Z,98819.67
2019-01-08T21:58:27.195Z,98825.28
2019-01-08T22:03:32.491Z,98815.59
2019-01-08T22:08:37.564Z,98813.55
2019-01-08T22:13:43.416Z,98825.89
2019-01-08T22:18:48.610Z,98817.25
2019-01-08T22:23:53.814Z,98817.25
2019-01-08T22:28:58.957Z,98815.97
2019-01-08T22:34:10.172Z,98810.76
2019-01-08T22:39:15.312Z,98837.61
2019-01-08T22:44:20.383Z,98847.09
2019-01-08T22:49:25.904Z,98841.06
2019-01-08T22:54:31.378Z,98837.69
2019-01-08T22:59:36.765Z,98837.72
2019-01-08T23:04:41.772Z,98841.94
2019-01-08T23:09:46.846Z,98842.47
2019-01-08T23:14:52.137Z,98838.83
2019-01-08T23:19:57.166Z,98837.52
2019-01-08T23:25:02.242Z,98834.14
2019-01-08T23:30:07.562Z,98844.64
2019-01-08T23:35:19.491Z,98855.44
2019-01-08T23:40:20.656Z,98858.84
2019-01-08T23:45:25.746Z,98857.80
2019-01-08T23:50:30.819Z,98844.95
2019-01-08T23:55:40.257Z,98845.73
